createdAt,value
2019-02-06T00:00:31.555Z,24.70
2019-02-06T00:04:36.750Z,24.07
2019-02-06T00:08:41.572Z,25.57
2019-02-06T00:12:47.022Z,23.40
2019-02-06T00:16:51.962Z,26.20
2019-02-06T00:20:57.097Z,25.70
2019-02-06T00:25:01.926Z,24.27
2019-02-06T00:29:06.761Z,24.07
2019-02-06T00:33:11.593Z,26.27
2019-02-06T00:37:16.401Z,23.73
2019-02-06T00:41:21.236Z,25.87
2019-02-06T00:45:26.235Z,23.03
2019-02-06T00:49:31.064Z,26.47
2019-02-06T00:53:36.867Z,24.23
2019-02-06T00:57:42.037Z,24.77
2019-02-06T01:01:46.951Z,25.00
2019-02-06T01:05:51.836Z,24.17
2019-02-06T01:09:56.859Z,26.40
2019-02-06T01:14:01.850Z,25.67
2019-02-06T01:18:06.644Z,25.33
2019-02-06T01:22:11.476Z,26.50
2019-02-06T01:26:16.300Z,25.93
2019-02-06T01:30:23.324Z,26.37
2019-02-06T01:34:28.157Z,26.93
2019-02-06T01:38:32.964Z,26.17
2019-02-06T01:42:38.248Z,27.33
2019-02-06T01:46:43.172Z,26.97
2019-02-06T01:50:48.014Z,26.63
2019-02-06T01:54:53.813Z,28.67
2019-02-06T01:58:58.651Z,25.77
2019-02-06T02:03:03.479Z,27.57
2019-02-06T02:07:08.296Z,26.40
2019-02-06T02:11:13.220Z,26.37
2019-02-06T02:15:19.079Z,26.67
2019-02-06T02:19:23.883Z,27.77
2019-02-06T02:23:28.720Z,26.67
2019-02-06T02:27:34.000Z,28.40
2019-02-06T02:31:39.246Z,26.47
2019-02-06T02:35:44.212Z,27.43
2019-02-06T02:39:49.079Z,27.83
2019-02-06T02:43:54.947Z,28.37
2019-02-06T02:47:59.895Z,30.23
2019-02-06T02:52:04.899Z,21.70
2019-02-06T02:56:12.244Z,27.97
2019-02-06T03:00:28.295Z,29.37
2019-02-06T03:04:33.284Z,28.83
2019-02-06T03:08:38.111Z,30.67
2019-02-06T03:12:42.975Z,31.37
2019-02-06T03:16:47.952Z,30.90
2019-02-06T03:20:52.850Z,29.67
2019-02-06T03:24:57.823Z,31.10
2019-02-06T03:29:02.821Z,31.77
2019-02-06T03:33:08.032Z,30.20
2019-02-06T03:37:12.907Z,31.13
2019-02-06T03:41:17.838Z,32.73
2019-02-06T03:45:22.783Z,33.13
2019-02-06T03:49:27.713Z,32.73
2019-02-06T03:53:32.535Z,33.53
2019-02-06T03:57:37.372Z,32.60
2019-02-06T04:01:43.164Z,31.77
2019-02-06T04:05:47.997Z,32.63
2019-02-06T04:09:53.148Z,33.27
2019-02-06T04:13:58.949Z,32.10
2019-02-06T04:18:03.980Z,33.47
2019-02-06T04:22:09.112Z,34.00
2019-02-06T04:26:13.985Z,34.97
2019-02-06T04:30:19.600Z,33.97
2019-02-06T04:34:24.438Z,32.57
2019-02-06T04:38:29.268Z,32.67
2019-02-06T04:42:34.146Z,33.30
2019-02-06T04:46:39.010Z,33.43
2019-02-06T04:50:43.933Z,31.90
2019-02-06T04:54:49.026Z,34.13
2019-02-06T04:58:53.917Z,33.00
2019-02-06T05:02:58.747Z,30.33
2019-02-06T05:07:03.584Z,31.23
2019-02-06T05:11:08.425Z,30.13
2019-02-06T05:15:14.995Z,28.50
2019-02-06T05:19:19.814Z,27.63
2019-02-06T05:23:24.652Z,31.40
2019-02-06T05:27:29.642Z,29.90
2019-02-06T05:31:34.436Z,26.83
2019-02-06T05:35:39.245Z,26.00
2019-02-06T05:39:44.376Z,27.27
2019-02-06T05:43:49.211Z,26.17
2019-02-06T05:47:54.050Z,23.80
2019-02-06T05:51:58.987Z,23.73
2019-02-06T05:56:04.334Z,24.83
2019-02-06T06:00:15.003Z,22.23
2019-02-06T06:04:19.959Z,21.03
2019-02-06T06:08:25.511Z,21.90
2019-02-06T06:12:30.820Z,23.30
2019-02-06T06:16:36.305Z,21.67
2019-02-06T06:20:41.153Z,21.87
2019-02-06T06:24:46.328Z,21.23
2019-02-06T06:28:51.232Z,20.40
2019-02-06T06:32:56.108Z,19.43
2019-02-06T06:37:02.958Z,20.23
2019-02-06T06:41:07.519Z,18.77
2019-02-06T06:45:20.560Z,18.50
2019-02-06T06:49:25.435Z,18.63
2019-02-06T06:53:30.340Z,19.13
2019-02-06T06:57:35.275Z,16.87
2019-02-06T07:01:40.387Z,14.90
2019-02-06T07:05:45.223Z,14.90
2019-02-06T07:09:51.051Z,11.97
2019-02-06T07:13:55.878Z,11.20
2019-02-06T07:18:00.897Z,10.70
2019-02-06T07:22:05.907Z,11.97
2019-02-06T07:26:10.860Z,10.93
2019-02-06T07:30:29.861Z,10.63
2019-02-06T07:34:35.023Z,10.63
2019-02-06T07:38:39.855Z,10.67
2019-02-06T07:42:47.037Z,10.97
2019-02-06T07:46:52.172Z,9.13
2019-02-06T07:50:57.263Z,9.90
2019-02-06T07:55:02.555Z,10.00
2019-02-06T07:59:07.789Z,8.90
2019-02-06T08:03:12.895Z,8.77
2019-02-06T08:07:18.035Z,8.67
2019-02-06T08:11:23.112Z,8.87
2019-02-06T08:15:28.023Z,8.23
2019-02-06T08:19:33.112Z,8.03
2019-02-06T08:23:38.231Z,7.73
2019-02-06T08:27:43.319Z,7.30
2019-02-06T08:31:48.229Z,7.13
2019-02-06T08:35:53.318Z,6.87
2019-02-06T08:39:58.439Z,7.20
2019-02-06T08:44:03.817Z,7.63
2019-02-06T08:48:08.901Z,8.00
2019-02-06T08:52:14.008Z,7.57
2019-02-06T08:56:19.118Z,7.20
2019-02-06T09:00:38.219Z,7.43
2019-02-06T09:04:54.222Z,7.73
2019-02-06T09:08:59.263Z,7.87
2019-02-06T09:12:57.463Z,7.53
2019-02-06T09:17:02.569Z,6.90
2019-02-06T09:21:07.692Z,7.70
2019-02-06T09:25:18.535Z,7.03
2019-02-06T09:29:25.021Z,7.08
2019-02-06T09:33:30.500Z,7.10
2019-02-06T09:37:35.611Z,6.80
2019-02-06T09:41:40.911Z,6.77
2019-02-06T09:45:46.027Z,6.80
2019-02-06T09:49:51.134Z,5.70
2019-02-06T09:53:55.951Z,7.20
2019-02-06T09:58:02.028Z,6.70
2019-02-06T10:02:09.420Z,6.40
2019-02-06T10:06:13.911Z,7.40
2019-02-06T10:10:21.529Z,6.77
2019-02-06T10:14:26.644Z,6.97
2019-02-06T10:18:31.934Z,7.57
2019-02-06T10:22:37.146Z,6.37
2019-02-06T10:26:42.215Z,6.57
2019-02-06T10:30:48.863Z,6.63
2019-02-06T10:34:54.072Z,6.53
2019-02-06T10:38:58.884Z,6.30
2019-02-06T10:43:04.157Z,6.60
2019-02-06T10:47:09.272Z,6.40
2019-02-06T10:51:14.751Z,6.30
2019-02-06T10:55:20.191Z,6.83
2019-02-06T10:59:25.347Z,6.23
2019-02-06T11:03:30.456Z,4.80
2019-02-06T11:07:35.564Z,4.60
2019-02-06T11:11:40.751Z,3.60
2019-02-06T11:15:45.843Z,3.50
2019-02-06T11:19:50.948Z,4.03
2019-02-06T11:23:55.752Z,3.17
2019-02-06T11:28:00.847Z,3.30
2019-02-06T11:32:06.255Z,3.43
2019-02-06T11:36:11.355Z,3.13
2019-02-06T11:40:19.227Z,3.37
2019-02-06T11:44:25.382Z,3.60
2019-02-06T11:48:30.523Z,3.53
2019-02-06T11:52:35.620Z,3.67
2019-02-06T11:56:40.784Z,3.23
2019-02-06T12:00:50.279Z,4.00
2019-02-06T12:04:55.387Z,3.60
2019-02-06T12:09:00.497Z,3.83
2019-02-06T12:13:07.359Z,4.10
2019-02-06T12:17:12.463Z,3.33
2019-02-06T12:21:18.163Z,3.50
2019-02-06T12:25:23.414Z,4.13
2019-02-06T12:29:28.484Z,3.50
2019-02-06T12:33:36.536Z,4.10
2019-02-06T12:37:40.179Z,5.60
2019-02-06T12:41:45.130Z,7.50
2019-02-06T12:45:50.017Z,6.53
2019-02-06T12:49:54.851Z,6.10
2019-02-06T12:53:59.823Z,6.50
2019-02-06T12:58:05.859Z,6.43
2019-02-06T13:02:11.064Z,6.23
2019-02-06T13:06:15.988Z,7.07
2019-02-06T13:10:32.937Z,7.90
2019-02-06T13:14:28.969Z,7.43
2019-02-06T13:18:33.797Z,8.93
2019-02-06T13:22:38.608Z,9.33
2019-02-06T13:26:44.285Z,8.73
2019-02-06T13:30:49.176Z,7.80
2019-02-06T13:34:53.975Z,8.53
2019-02-06T13:38:59.100Z,9.53
2019-02-06T13:43:04.318Z,9.83
2019-02-06T13:47:10.310Z,10.23
2019-02-06T13:51:19.022Z,9.43
2019-02-06T13:55:21.824Z,9.85
2019-02-06T13:59:26.992Z,10.50
2019-02-06T14:03:31.987Z,10.33
2019-02-06T14:07:37.038Z,10.17
2019-02-06T14:11:42.022Z,9.70
2019-02-06T14:15:48.076Z,10.57
2019-02-06T14:19:52.931Z,10.90
2019-02-06T14:24:01.086Z,11.63
2019-02-06T14:28:24.956Z,11.03
2019-02-06T14:32:58.947Z,10.47
2019-02-06T14:37:39.147Z,9.97
2019-02-06T14:42:10.063Z,10.60
2019-02-06T14:46:37.758Z,11.60
2019-02-06T14:50:58.016Z,11.20
2019-02-06T14:55:15.150Z,11.93
2019-02-06T14:59:29.582Z,11.40
2019-02-06T15:03:58.625Z,11.20
2019-02-06T15:08:12.519Z,11.53
2019-02-06T15:12:35.791Z,12.17
2019-02-06T15:17:01.907Z,10.87
2019-02-06T15:21:13.155Z,12.20
2019-02-06T15:25:37.750Z,12.83
2019-02-06T15:30:00.630Z,11.70
2019-02-06T15:34:33.056Z,12.20
2019-02-06T15:39:16.175Z,11.90
2019-02-06T15:43:41.026Z,12.83
2019-02-06T15:48:01.134Z,12.73
2019-02-06T15:52:18.498Z,12.47
2019-02-06T15:56:44.341Z,12.90
2019-02-06T16:01:18.585Z,11.70
2019-02-06T16:05:36.868Z,12.47
2019-02-06T16:09:54.083Z,12.30
2019-02-06T16:14:23.332Z,13.20
2019-02-06T16:18:37.682Z,14.23
2019-02-06T16:23:01.222Z,11.07
2019-02-06T16:27:22.449Z,13.10
2019-02-06T16:31:47.936Z,12.00
2019-02-06T16:36:17.343Z,11.13
2019-02-06T16:40:46.572Z,11.47
2019-02-06T16:44:55.615Z,12.13
2019-02-06T16:49:17.467Z,11.57
2019-02-06T16:53:32.649Z,11.57
2019-02-06T16:57:43.946Z,11.97
2019-02-06T17:01:58.376Z,14.70
2019-02-06T17:06:06.504Z,14.53
2019-02-06T17:10:47.310Z,14.33
2019-02-06T17:14:58.620Z,13.80
2019-02-06T17:19:06.725Z,13.10
2019-02-06T17:23:24.036Z,14.03
2019-02-06T17:27:41.283Z,30.77
2019-02-06T17:32:04.019Z,13.10
2019-02-06T17:36:30.554Z,13.77
2019-02-06T17:40:44.887Z,12.93
2019-02-06T17:44:59.156Z,14.57
2019-02-06T17:49:24.476Z,13.40
2019-02-06T17:53:41.682Z,14.87
2019-02-06T17:57:47.764Z,15.27
2019-02-06T18:01:52.833Z,15.90
2019-02-06T18:05:59.678Z,15.03
2019-02-06T18:10:07.845Z,23.23
2019-02-06T18:14:14.922Z,13.13
2019-02-06T18:18:19.789Z,12.73
2019-02-06T18:26:42.478Z,12.03
2019-02-06T18:30:47.760Z,14.30
2019-02-06T18:34:52.627Z,13.43
2019-02-06T18:38:57.584Z,13.28
2019-02-06T18:43:03.247Z,14.57
2019-02-06T18:47:08.506Z,14.07
2019-02-06T18:51:13.332Z,15.00
2019-02-06T18:55:21.065Z,14.80
2019-02-06T18:59:25.123Z,13.70
2019-02-06T19:03:39.005Z,13.73
2019-02-06T19:07:44.239Z,15.00
2019-02-06T19:11:49.328Z,15.27
2019-02-06T19:15:56.589Z,14.47
2019-02-06T19:20:01.037Z,14.40
2019-02-06T19:24:06.235Z,13.93
2019-02-06T19:28:11.046Z,14.40
2019-02-06T19:32:16.663Z,13.43
2019-02-06T19:36:21.611Z,13.73
2019-02-06T19:40:26.441Z,14.33
2019-02-06T19:44:31.324Z,12.33
2019-02-06T19:48:36.239Z,13.37
2019-02-06T19:52:41.593Z,12.47
2019-02-06T19:56:46.444Z,13.83
2019-02-06T20:00:51.286Z,14.57
2019-02-06T20:04:56.266Z,14.80
2019-02-06T20:09:01.094Z,14.97
2019-02-06T20:13:11.325Z,14.27
2019-02-06T20:17:14.095Z,16.20
2019-02-06T20:21:18.974Z,14.57
2019-02-06T20:25:23.803Z,14.80
2019-02-06T20:29:28.632Z,16.47
2019-02-06T20:33:33.440Z,17.03
2019-02-06T20:37:38.732Z,16.87
2019-02-06T20:41:43.541Z,17.27
2019-02-06T20:45:48.495Z,17.37
2019-02-06T20:49:53.331Z,20.30
2019-02-06T20:53:58.146Z,21.13
2019-02-06T20:58:03.271Z,19.40
2019-02-06T21:02:08.345Z,19.27
2019-02-06T21:06:13.452Z,27.00
2019-02-06T21:10:20.323Z,26.10
2019-02-06T21:14:25.171Z,19.47
2019-02-06T21:18:29.960Z,21.87
2019-02-06T21:22:34.852Z,20.20
2019-02-06T21:26:39.679Z,20.07
2019-02-06T21:30:46.855Z,22.50
2019-02-06T21:34:51.050Z,22.87
2019-02-06T21:38:55.930Z,20.83
2019-02-06T21:43:01.085Z,21.53
2019-02-06T21:47:05.923Z,21.17
2019-02-06T21:51:11.060Z,19.57
2019-02-06T21:55:21.319Z,15.43
2019-02-06T21:59:26.128Z,15.30
2019-02-06T22:03:30.964Z,17.37
2019-02-06T22:07:36.118Z,15.70
2019-02-06T22:11:41.314Z,14.70
2019-02-06T22:15:46.559Z,12.53
2019-02-06T22:19:51.460Z,13.60
2019-02-06T22:23:56.532Z,11.77
2019-02-06T22:28:01.368Z,13.27
2019-02-06T22:32:06.253Z,13.83
2019-02-06T22:36:11.081Z,15.50
2019-02-06T22:40:18.616Z,18.93
2019-02-06T22:44:23.439Z,23.30
2019-02-06T22:48:28.575Z,22.63
2019-02-06T22:52:33.411Z,20.63
2019-02-06T22:56:41.147Z,21.20
2019-02-06T23:01:00.148Z,18.70
2019-02-06T23:05:06.460Z,19.77
2019-02-06T23:09:11.595Z,23.12
2019-02-06T23:13:16.688Z,23.77
2019-02-06T23:17:21.583Z,24.60
2019-02-06T23:21:26.392Z,23.67
2019-02-06T23:25:31.257Z,24.23
2019-02-06T23:29:36.084Z,24.00
2019-02-06T23:33:40.919Z,20.97
2019-02-06T23:37:46.202Z,19.83
2019-02-06T23:41:51.035Z,14.50
2019-02-06T23:45:55.860Z,14.30
2019-02-06T23:50:00.739Z,14.80
2019-02-06T23:54:05.875Z,14.87
2019-02-06T23:58:10.719Z,14.30
